sensor_id;sensor_type;location;lat;lon;timestamp;temperature;humidity
7290;DHT22;63176;52.678;13.250;2023-11-18T00:00:51;6.30;99.90
7290;DHT22;63176;52.678;13.250;2023-11-18T00:03:17;6.30;99.90
7290;DHT22;63176;52.678;13.250;2023-11-18T00:05:42;6.30;99.90
7290;DHT22;63176;52.678;13.250;2023-11-18T00:08:08;6.20;99.90
7290;DHT22;63176;52.678;13.250;2023-11-18T00:10:34;6.20;99.90
7290;DHT22;63176;52.678;13.250;2023-11-18T00:12:59;6.20;99.90
7290;DHT22;63176;52.678;13.250;2023-11-18T00:15:27;6.30;99.90
7290;DHT22;63176;52.678;13.250;2023-11-18T00:17:52;6.20;99.90
7290;DHT22;63176;52.678;13.250;2023-11-18T00:20:18;6.20;99.90
7290;DHT22;63176;52.678;13.250;2023-11-18T00:22:45;6.20;99.90
7290;DHT22;63176;52.678;13.250;2023-11-18T00:25:11;6.20;99.90
7290;DHT22;63176;52.678;13.250;2023-11-18T00:27:39;6.20;99.90
7290;DHT22;63176;52.678;13.250;2023-11-18T00:30:06;6.20;99.90
7290;DHT22;63176;52.678;13.250;2023-11-18T00:32:37;6.20;99.90
7290;DHT22;63176;52.678;13.250;2023-11-18T00:35:03;6.20;99.90
7290;DHT22;63176;52.678;13.250;2023-11-18T00:37:32;6.20;99.90
7290;DHT22;63176;52.678;13.250;2023-11-18T00:39:58;6.30;99.90
7290;DHT22;63176;52.678;13.250;2023-11-18T00:42:24;6.30;99.90
7290;DHT22;63176;52.678;13.250;2023-11-18T00:44:49;6.20;99.90
7290;DHT22;63176;52.678;13.250;2023-11-18T00:47:15;6.20;99.90
7290;DHT22;63176;52.678;13.250;2023-11-18T00:49:41;6.20;99.90
7290;DHT22;63176;52.678;13.250;2023-11-18T00:52:06;6.20;99.90
7290;DHT22;63176;52.678;13.250;2023-11-18T00:54:32;6.20;99.90
7290;DHT22;63176;52.678;13.250;2023-11-18T00:56:59;6.20;99.90
7290;DHT22;63176;52.678;13.250;2023-11-18T00:59:25;6.10;99.90
7290;DHT22;63176;52.678;13.250;2023-11-18T01:01:52;6.10;99.90
7290;DHT22;63176;52.678;13.250;2023-11-18T01:04:17;6.00;99.90
7290;DHT22;63176;52.678;13.250;2023-11-18T01:06:45;6.00;99.90
7290;DHT22;63176;52.678;13.250;2023-11-18T01:09:11;6.10;99.90
7290;DHT22;63176;52.678;13.250;2023-11-18T01:11:37;6.10;99.90
7290;DHT22;63176;52.678;13.250;2023-11-18T01:14:03;6.10;99.90
7290;DHT22;63176;52.678;13.250;2023-11-18T01:16:29;6.10;99.90
7290;DHT22;63176;52.678;13.250;2023-11-18T01:18:55;6.10;99.90
7290;DHT22;63176;52.678;13.250;2023-11-18T01:21:20;6.10;99.90
7290;DHT22;63176;52.678;13.250;2023-11-18T01:23:47;6.10;99.90
7290;DHT22;63176;52.678;13.250;2023-11-18T01:26:14;6.10;99.90
7290;DHT22;63176;52.678;13.250;2023-11-18T01:28:40;6.10;99.90
7290;DHT22;63176;52.678;13.250;2023-11-18T01:31:11;6.10;99.90
7290;DHT22;63176;52.678;13.250;2023-11-18T01:33:40;6.00;99.90
7290;DHT22;63176;52.678;13.250;2023-11-18T01:36:08;6.10;99.90
7290;DHT22;63176;52.678;13.250;2023-11-18T01:38:34;6.10;99.90
7290;DHT22;63176;52.678;13.250;2023-11-18T01:41:00;6.00;99.90
7290;DHT22;63176;52.678;13.250;2023-11-18T01:43:26;6.00;99.90
7290;DHT22;63176;52.678;13.250;2023-11-18T01:45:52;6.00;99.90
7290;DHT22;63176;52.678;13.250;2023-11-18T01:48:19;6.00;99.90
7290;DHT22;63176;52.678;13.250;2023-11-18T01:50:48;6.00;99.90
7290;DHT22;63176;52.678;13.250;2023-11-18T01:53:14;6.10;99.90
7290;DHT22;63176;52.678;13.250;2023-11-18T01:55:40;6.10;99.90
7290;DHT22;63176;52.678;13.250;2023-11-18T01:58:07;6.10;99.90
7290;DHT22;63176;52.678;13.250;2023-11-18T02:00:37;6.10;99.90
7290;DHT22;63176;52.678;13.250;2023-11-18T02:03:07;6.10;99.90
7290;DHT22;63176;52.678;13.250;2023-11-18T02:05:33;6.10;99.90
7290;DHT22;63176;52.678;13.250;2023-11-18T02:08:00;6.10;99.90
7290;DHT22;63176;52.678;13.250;2023-11-18T02:10:26;6.00;99.90
7290;DHT22;63176;52.678;13.250;2023-11-18T02:13:07;6.00;99.90
7290;DHT22;63176;52.678;13.250;2023-11-18T02:15:36;6.00;99.90
7290;DHT22;63176;52.678;13.250;2023-11-18T02:18:06;6.00;99.90
7290;DHT22;63176;52.678;13.250;2023-11-18T02:20:32;6.00;99.90
7290;DHT22;63176;52.678;13.250;2023-11-18T02:23:00;6.00;99.90
7290;DHT22;63176;52.678;13.250;2023-11-18T02:25:27;6.00;99.90
7290;DHT22;63176;52.678;13.250;2023-11-18T02:27:54;6.00;99.90
7290;DHT22;63176;52.678;13.250;2023-11-18T02:30:20;6.00;99.90
7290;DHT22;63176;52.678;13.250;2023-11-18T02:33:00;6.00;99.90
7290;DHT22;63176;52.678;13.250;2023-11-18T02:35:36;6.00;99.90
7290;DHT22;63176;52.678;13.250;2023-11-18T02:38:04;6.00;99.90
7290;DHT22;63176;52.678;13.250;2023-11-18T02:40:39;6.10;99.90
7290;DHT22;63176;52.678;13.250;2023-11-18T02:43:06;6.00;99.90
7290;DHT22;63176;52.678;13.250;2023-11-18T02:45:33;6.00;99.90
7290;DHT22;63176;52.678;13.250;2023-11-18T02:48:00;6.00;99.90
7290;DHT22;63176;52.678;13.250;2023-11-18T02:50:26;6.00;99.90
7290;DHT22;63176;52.678;13.250;2023-11-18T02:52:53;6.00;99.90
7290;DHT22;63176;52.678;13.250;2023-11-18T02:55:19;6.00;99.90
7290;DHT22;63176;52.678;13.250;2023-11-18T02:57:48;6.00;99.90
7290;DHT22;63176;52.678;13.250;2023-11-18T03:00:15;6.00;99.90
7290;DHT22;63176;52.678;13.250;2023-11-18T03:02:50;6.00;99.90
7290;DHT22;63176;52.678;13.250;2023-11-18T03:05:17;6.00;99.90
7290;DHT22;63176;52.678;13.250;2023-11-18T03:07:44;6.00;99.90
7290;DHT22;63176;52.678;13.250;2023-11-18T03:10:13;5.90;99.90
7290;DHT22;63176;52.678;13.250;2023-11-18T03:12:47;5.90;99.90
7290;DHT22;63176;52.678;13.250;2023-11-18T03:15:13;6.00;99.90
7290;DHT22;63176;52.678;13.250;2023-11-18T03:17:38;6.00;99.90
7290;DHT22;63176;52.678;13.250;2023-11-18T03:20:05;6.00;99.90
7290;DHT22;63176;52.678;13.250;2023-11-18T03:22:37;6.00;99.90
7290;DHT22;63176;52.678;13.250;2023-11-18T03:25:03;6.00;99.90
7290;DHT22;63176;52.678;13.250;2023-11-18T03:27:31;6.00;99.90
7290;DHT22;63176;52.678;13.250;2023-11-18T03:29:56;5.90;99.90
7290;DHT22;63176;52.678;13.250;2023-11-18T03:32:22;6.00;99.90
7290;DHT22;63176;52.678;13.250;2023-11-18T03:34:47;6.00;99.90
7290;DHT22;63176;52.678;13.250;2023-11-18T03:37:13;6.00;99.90
7290;DHT22;63176;52.678;13.250;2023-11-18T03:39:39;5.90;99.90
7290;DHT22;63176;52.678;13.250;2023-11-18T03:42:04;5.90;99.90
7290;DHT22;63176;52.678;13.250;2023-11-18T03:44:30;5.90;99.90
7290;DHT22;63176;52.678;13.250;2023-11-18T03:46:56;5.90;99.90
7290;DHT22;63176;52.678;13.250;2023-11-18T03:49:21;5.90;99.90
7290;DHT22;63176;52.678;13.250;2023-11-18T03:51:47;5.90;99.90
7290;DHT22;63176;52.678;13.250;2023-11-18T03:54:13;5.80;99.90
7290;DHT22;63176;52.678;13.250;2023-11-18T03:56:39;5.80;99.90
7290;DHT22;63176;52.678;13.250;2023-11-18T03:59:05;5.80;99.90
7290;DHT22;63176;52.678;13.250;2023-11-18T04:01:30;5.80;99.90
7290;DHT22;63176;52.678;13.250;2023-11-18T04:03:58;5.80;99.90
7290;DHT22;63176;52.678;13.250;2023-11-18T04:06:24;5.80;99.90
7290;DHT22;63176;52.678;13.250;2023-11-18T04:08:50;5.70;99.90
7290;DHT22;63176;52.678;13.250;2023-11-18T04:11:16;5.70;99.90
7290;DHT22;63176;52.678;13.250;2023-11-18T04:13:42;5.70;99.90
7290;DHT22;63176;52.678;13.250;2023-11-18T04:16:11;5.70;99.90
7290;DHT22;63176;52.678;13.250;2023-11-18T04:18:45;5.70;99.90
7290;DHT22;63176;52.678;13.250;2023-11-18T04:21:12;5.80;99.90
7290;DHT22;63176;52.678;13.250;2023-11-18T04:23:39;5.80;99.90
7290;DHT22;63176;52.678;13.250;2023-11-18T04:26:05;5.80;99.90
7290;DHT22;63176;52.678;13.250;2023-11-18T04:28:33;5.80;99.90
7290;DHT22;63176;52.678;13.250;2023-11-18T04:30:59;5.70;99.90
7290;DHT22;63176;52.678;13.250;2023-11-18T04:33:25;5.80;99.90
7290;DHT22;63176;52.678;13.250;2023-11-18T04:35:51;5.80;99.90
7290;DHT22;63176;52.678;13.250;2023-11-18T04:38:17;5.70;99.90
7290;DHT22;63176;52.678;13.250;2023-11-18T04:40:43;5.70;99.90
7290;DHT22;63176;52.678;13.250;2023-11-18T04:43:11;5.70;99.90
7290;DHT22;63176;52.678;13.250;2023-11-18T04:45:37;5.70;99.90
7290;DHT22;63176;52.678;13.250;2023-11-18T04:48:03;5.70;99.90
7290;DHT22;63176;52.678;13.250;2023-11-18T04:50:30;5.70;99.90
7290;DHT22;63176;52.678;13.250;2023-11-18T04:52:56;5.70;99.90
7290;DHT22;63176;52.678;13.250;2023-11-18T04:55:22;5.70;99.90
7290;DHT22;63176;52.678;13.250;2023-11-18T04:57:47;5.70;99.90
7290;DHT22;63176;52.678;13.250;2023-11-18T05:00:14;5.70;99.90
7290;DHT22;63176;52.678;13.250;2023-11-18T05:02:42;5.70;99.90
7290;DHT22;63176;52.678;13.250;2023-11-18T05:05:09;5.70;99.90
7290;DHT22;63176;52.678;13.250;2023-11-18T05:07:35;5.70;99.90
7290;DHT22;63176;52.678;13.250;2023-11-18T05:10:04;5.70;99.90
7290;DHT22;63176;52.678;13.250;2023-11-18T05:12:29;5.70;99.90
7290;DHT22;63176;52.678;13.250;2023-11-18T05:14:56;5.70;99.90
7290;DHT22;63176;52.678;13.250;2023-11-18T05:17:23;5.70;99.90
7290;DHT22;63176;52.678;13.250;2023-11-18T05:19:48;5.70;99.90
7290;DHT22;63176;52.678;13.250;2023-11-18T05:22:14;5.70;99.90
7290;DHT22;63176;52.678;13.250;2023-11-18T05:24:40;5.70;99.90
7290;DHT22;63176;52.678;13.250;2023-11-18T05:27:05;5.70;99.90
7290;DHT22;63176;52.678;13.250;2023-11-18T05:29:31;5.70;99.90
7290;DHT22;63176;52.678;13.250;2023-11-18T05:31:57;5.70;99.90
7290;DHT22;63176;52.678;13.250;2023-11-18T05:34:23;5.70;99.90
7290;DHT22;63176;52.678;13.250;2023-11-18T05:36:50;5.70;99.90
7290;DHT22;63176;52.678;13.250;2023-11-18T05:39:20;5.70;99.90
7290;DHT22;63176;52.678;13.250;2023-11-18T05:41:47;5.70;99.90
7290;DHT22;63176;52.678;13.250;2023-11-18T05:44:15;5.60;99.90
7290;DHT22;63176;52.678;13.250;2023-11-18T05:46:48;5.60;99.90
7290;DHT22;63176;52.678;13.250;2023-11-18T05:49:17;5.60;99.90
7290;DHT22;63176;52.678;13.250;2023-11-18T05:51:43;5.60;99.90
7290;DHT22;63176;52.678;13.250;2023-11-18T05:54:10;5.60;99.90
7290;DHT22;63176;52.678;13.250;2023-11-18T05:56:36;5.70;99.90
7290;DHT22;63176;52.678;13.250;2023-11-18T05:59:02;5.60;99.90
7290;DHT22;63176;52.678;13.250;2023-11-18T06:01:31;5.60;99.90
7290;DHT22;63176;52.678;13.250;2023-11-18T06:03:57;5.70;99.90
7290;DHT22;63176;52.678;13.250;2023-11-18T06:06:24;5.60;99.90
7290;DHT22;63176;52.678;13.250;2023-11-18T06:08:50;5.60;99.90
7290;DHT22;63176;52.678;13.250;2023-11-18T06:11:16;5.60;99.90
7290;DHT22;63176;52.678;13.250;2023-11-18T06:13:50;5.70;99.90
7290;DHT22;63176;52.678;13.250;2023-11-18T06:16:18;5.60;99.90
7290;DHT22;63176;52.678;13.250;2023-11-18T06:18:49;5.60;99.90
7290;DHT22;63176;52.678;13.250;2023-11-18T06:21:16;5.60;99.90
7290;DHT22;63176;52.678;13.250;2023-11-18T06:23:42;5.60;99.90
7290;DHT22;63176;52.678;13.250;2023-11-18T06:26:08;5.50;99.90
7290;DHT22;63176;52.678;13.250;2023-11-18T06:28:39;5.50;99.90
7290;DHT22;63176;52.678;13.250;2023-11-18T06:31:05;5.50;99.90
7290;DHT22;63176;52.678;13.250;2023-11-18T06:33:36;5.50;99.90
7290;DHT22;63176;52.678;13.250;2023-11-18T06:36:04;5.50;99.90
7290;DHT22;63176;52.678;13.250;2023-11-18T06:38:30;5.50;99.90
7290;DHT22;63176;52.678;13.250;2023-11-18T06:40:56;5.50;99.90
7290;DHT22;63176;52.678;13.250;2023-11-18T06:43:23;5.50;99.90
7290;DHT22;63176;52.678;13.250;2023-11-18T06:45:51;5.50;99.90
7290;DHT22;63176;52.678;13.250;2023-11-18T06:48:17;5.50;99.90
7290;DHT22;63176;52.678;13.250;2023-11-18T06:50:46;5.50;99.90
7290;DHT22;63176;52.678;13.250;2023-11-18T06:53:11;5.60;99.90
7290;DHT22;63176;52.678;13.250;2023-11-18T06:55:37;5.60;99.90
7290;DHT22;63176;52.678;13.250;2023-11-18T06:58:03;5.60;99.90
7290;DHT22;63176;52.678;13.250;2023-11-18T07:00:29;5.60;99.90
7290;DHT22;63176;52.678;13.250;2023-11-18T07:02:55;5.60;99.90
7290;DHT22;63176;52.678;13.250;2023-11-18T07:05:21;5.60;99.90
7290;DHT22;63176;52.678;13.250;2023-11-18T07:07:50;5.60;99.90
7290;DHT22;63176;52.678;13.250;2023-11-18T07:10:16;5.70;99.90
7290;DHT22;63176;52.678;13.250;2023-11-18T07:12:46;5.70;99.90
7290;DHT22;63176;52.678;13.250;2023-11-18T07:15:14;5.70;99.90
7290;DHT22;63176;52.678;13.250;2023-11-18T07:17:40;5.80;99.90
7290;DHT22;63176;52.678;13.250;2023-11-18T07:20:06;5.80;99.90
7290;DHT22;63176;52.678;13.250;2023-11-18T07:22:32;5.80;99.90
7290;DHT22;63176;52.678;13.250;2023-11-18T07:24:58;5.80;99.90
7290;DHT22;63176;52.678;13.250;2023-11-18T07:27:23;5.80;99.90
7290;DHT22;63176;52.678;13.250;2023-11-18T07:29:49;5.80;99.90
7290;DHT22;63176;52.678;13.250;2023-11-18T07:32:15;5.80;99.90
7290;DHT22;63176;52.678;13.250;2023-11-18T07:34:40;5.90;99.90
7290;DHT22;63176;52.678;13.250;2023-11-18T07:37:06;5.80;99.90
7290;DHT22;63176;52.678;13.250;2023-11-18T07:39:34;5.80;99.90
7290;DHT22;63176;52.678;13.250;2023-11-18T07:42:14;5.80;99.90
7290;DHT22;63176;52.678;13.250;2023-11-18T07:44:40;5.80;99.90
7290;DHT22;63176;52.678;13.250;2023-11-18T07:47:06;5.80;99.90
7290;DHT22;63176;52.678;13.250;2023-11-18T07:49:35;5.90;99.90
7290;DHT22;63176;52.678;13.250;2023-11-18T07:52:02;5.90;99.90
7290;DHT22;63176;52.678;13.250;2023-11-18T07:54:28;5.90;99.90
7290;DHT22;63176;52.678;13.250;2023-11-18T07:56:53;5.90;99.90
7290;DHT22;63176;52.678;13.250;2023-11-18T07:59:20;5.90;99.90
7290;DHT22;63176;52.678;13.250;2023-11-18T08:01:46;5.90;99.90
7290;DHT22;63176;52.678;13.250;2023-11-18T08:04:12;6.00;99.90
7290;DHT22;63176;52.678;13.250;2023-11-18T08:06:42;6.00;99.90
7290;DHT22;63176;52.678;13.250;2023-11-18T08:09:09;6.00;99.90
7290;DHT22;63176;52.678;13.250;2023-11-18T08:11:40;6.00;99.90
7290;DHT22;63176;52.678;13.250;2023-11-18T08:14:10;6.10;99.90
7290;DHT22;63176;52.678;13.250;2023-11-18T08:16:35;6.10;99.90
7290;DHT22;63176;52.678;13.250;2023-11-18T08:19:03;6.10;99.90
7290;DHT22;63176;52.678;13.250;2023-11-18T08:21:31;6.10;99.90
7290;DHT22;63176;52.678;13.250;2023-11-18T08:23:56;6.20;99.90
7290;DHT22;63176;52.678;13.250;2023-11-18T08:26:25;6.20;99.90
7290;DHT22;63176;52.678;13.250;2023-11-18T08:28:51;6.20;99.90
7290;DHT22;63176;52.678;13.250;2023-11-18T08:31:17;6.30;99.90
7290;DHT22;63176;52.678;13.250;2023-11-18T08:33:43;6.30;99.90
7290;DHT22;63176;52.678;13.250;2023-11-18T08:36:10;6.30;99.90
7290;DHT22;63176;52.678;13.250;2023-11-18T08:38:38;6.40;99.90
7290;DHT22;63176;52.678;13.250;2023-11-18T08:41:04;6.40;99.90
7290;DHT22;63176;52.678;13.250;2023-11-18T08:43:31;6.50;99.90
7290;DHT22;63176;52.678;13.250;2023-11-18T08:45:56;6.60;99.90
7290;DHT22;63176;52.678;13.250;2023-11-18T08:48:22;6.70;99.90
7290;DHT22;63176;52.678;13.250;2023-11-18T08:50:48;6.80;99.90
7290;DHT22;63176;52.678;13.250;2023-11-18T08:53:14;6.80;99.90
7290;DHT22;63176;52.678;13.250;2023-11-18T08:55:43;6.80;99.90
7290;DHT22;63176;52.678;13.250;2023-11-18T08:58:19;6.80;99.90
7290;DHT22;63176;52.678;13.250;2023-11-18T09:00:49;6.80;99.90
7290;DHT22;63176;52.678;13.250;2023-11-18T09:03:21;6.80;99.90
7290;DHT22;63176;52.678;13.250;2023-11-18T09:05:51;6.80;99.90
7290;DHT22;63176;52.678;13.250;2023-11-18T09:08:28;6.70;99.90
7290;DHT22;63176;52.678;13.250;2023-11-18T09:10:56;6.70;99.90
7290;DHT22;63176;52.678;13.250;2023-11-18T09:13:25;6.70;99.90
7290;DHT22;63176;52.678;13.250;2023-11-18T09:15:59;6.80;99.90
7290;DHT22;63176;52.678;13.250;2023-11-18T09:18:31;6.70;99.90
7290;DHT22;63176;52.678;13.250;2023-11-18T09:20:59;6.70;99.90
7290;DHT22;63176;52.678;13.250;2023-11-18T09:23:27;6.70;99.90
7290;DHT22;63176;52.678;13.250;2023-11-18T09:25:53;6.70;99.90
7290;DHT22;63176;52.678;13.250;2023-11-18T09:28:24;6.70;99.90
7290;DHT22;63176;52.678;13.250;2023-11-18T09:30:56;6.70;99.90
7290;DHT22;63176;52.678;13.250;2023-11-18T09:33:33;6.70;99.90
7290;DHT22;63176;52.678;13.250;2023-11-18T09:36:03;6.70;99.90
7290;DHT22;63176;52.678;13.250;2023-11-18T09:38:33;6.70;99.90
7290;DHT22;63176;52.678;13.250;2023-11-18T09:41:04;6.70;99.90
7290;DHT22;63176;52.678;13.250;2023-11-18T09:43:33;6.70;99.90
7290;DHT22;63176;52.678;13.250;2023-11-18T09:46:06;6.70;99.90
7290;DHT22;63176;52.678;13.250;2023-11-18T09:48:50;6.70;99.90
7290;DHT22;63176;52.678;13.250;2023-11-18T09:51:26;6.80;99.90
7290;DHT22;63176;52.678;13.250;2023-11-18T09:53:59;6.80;99.90
7290;DHT22;63176;52.678;13.250;2023-11-18T09:59:31;6.80;99.90
7290;DHT22;63176;52.678;13.250;2023-11-18T10:02:01;6.80;99.90
7290;DHT22;63176;52.678;13.250;2023-11-18T10:04:28;6.80;99.90
7290;DHT22;63176;52.678;13.250;2023-11-18T10:06:54;6.80;99.90
7290;DHT22;63176;52.678;13.250;2023-11-18T10:09:23;7.00;99.90
7290;DHT22;63176;52.678;13.250;2023-11-18T10:12:02;7.00;99.90
7290;DHT22;63176;52.678;13.250;2023-11-18T10:14:34;7.10;99.90
7290;DHT22;63176;52.678;13.250;2023-11-18T10:17:04;7.10;99.90
7290;DHT22;63176;52.678;13.250;2023-11-18T10:22:25;7.20;99.90
7290;DHT22;63176;52.678;13.250;2023-11-18T10:24:56;7.20;99.90
7290;DHT22;63176;52.678;13.250;2023-11-18T10:27:29;7.10;99.90
7290;DHT22;63176;52.678;13.250;2023-11-18T10:30:02;7.10;99.90
7290;DHT22;63176;52.678;13.250;2023-11-18T10:32:28;7.10;99.90
7290;DHT22;63176;52.678;13.250;2023-11-18T10:34:57;7.10;99.90
7290;DHT22;63176;52.678;13.250;2023-11-18T10:37:26;7.10;99.90
7290;DHT22;63176;52.678;13.250;2023-11-18T10:39:56;7.00;99.90
7290;DHT22;63176;52.678;13.250;2023-11-18T10:42:25;7.00;99.90
7290;DHT22;63176;52.678;13.250;2023-11-18T10:44:56;7.00;99.90
7290;DHT22;63176;52.678;13.250;2023-11-18T10:47:28;7.00;99.90
7290;DHT22;63176;52.678;13.250;2023-11-18T10:49:55;7.00;99.90
7290;DHT22;63176;52.678;13.250;2023-11-18T10:52:27;7.00;99.90
7290;DHT22;63176;52.678;13.250;2023-11-18T10:55:00;7.00;99.90
7290;DHT22;63176;52.678;13.250;2023-11-18T10:57:33;6.90;99.90
7290;DHT22;63176;52.678;13.250;2023-11-18T11:00:02;6.90;99.90
7290;DHT22;63176;52.678;13.250;2023-11-18T11:02:32;6.90;99.90
7290;DHT22;63176;52.678;13.250;2023-11-18T11:05:03;6.90;99.90
7290;DHT22;63176;52.678;13.250;2023-11-18T11:07:31;6.90;99.90
7290;DHT22;63176;52.678;13.250;2023-11-18T11:09:59;6.90;99.90
7290;DHT22;63176;52.678;13.250;2023-11-18T11:12:26;6.90;99.90
7290;DHT22;63176;52.678;13.250;2023-11-18T11:15:00;6.90;99.90
7290;DHT22;63176;52.678;13.250;2023-11-18T11:17:29;6.90;99.90
7290;DHT22;63176;52.678;13.250;2023-11-18T11:20:05;6.90;99.90
7290;DHT22;63176;52.678;13.250;2023-11-18T11:28:45;6.90;99.90
7290;DHT22;63176;52.678;13.250;2023-11-18T11:34:17;6.90;99.90
7290;DHT22;63176;52.678;13.250;2023-11-18T11:36:51;6.90;99.90
7290;DHT22;63176;52.678;13.250;2023-11-18T11:39:18;6.90;99.90
7290;DHT22;63176;52.678;13.250;2023-11-18T11:41:52;6.90;99.90
7290;DHT22;63176;52.678;13.250;2023-11-18T11:44:22;6.90;99.90
7290;DHT22;63176;52.678;13.250;2023-11-18T11:46:58;6.90;99.90
7290;DHT22;63176;52.678;13.250;2023-11-18T11:49:26;6.90;99.90
7290;DHT22;63176;52.678;13.250;2023-11-18T11:54:34;6.80;99.90
7290;DHT22;63176;52.678;13.250;2023-11-18T11:57:06;6.80;99.90
7290;DHT22;63176;52.678;13.250;2023-11-18T12:02:13;6.80;99.90
7290;DHT22;63176;52.678;13.250;2023-11-18T12:04:50;6.90;99.90
7290;DHT22;63176;52.678;13.250;2023-11-18T12:07:29;6.90;99.90
7290;DHT22;63176;52.678;13.250;2023-11-18T12:10:00;6.80;99.90
7290;DHT22;63176;52.678;13.250;2023-11-18T12:12:32;6.80;99.90
7290;DHT22;63176;52.678;13.250;2023-11-18T12:14:59;6.80;99.90
7290;DHT22;63176;52.678;13.250;2023-11-18T12:20:38;6.90;99.90
7290;DHT22;63176;52.678;13.250;2023-11-18T12:23:08;6.90;99.90
7290;DHT22;63176;52.678;13.250;2023-11-18T12:25:43;6.90;99.90
7290;DHT22;63176;52.678;13.250;2023-11-18T12:28:17;6.90;99.90
7290;DHT22;63176;52.678;13.250;2023-11-18T12:30:53;6.80;99.90
7290;DHT22;63176;52.678;13.250;2023-11-18T12:33:24;6.90;99.90
7290;DHT22;63176;52.678;13.250;2023-11-18T12:44:16;6.90;99.90
7290;DHT22;63176;52.678;13.250;2023-11-18T12:46:49;6.80;99.90
7290;DHT22;63176;52.678;13.250;2023-11-18T12:49:16;6.80;99.90
7290;DHT22;63176;52.678;13.250;2023-11-18T12:51:43;6.80;99.90
7290;DHT22;63176;52.678;13.250;2023-11-18T12:54:11;6.80;99.90
7290;DHT22;63176;52.678;13.250;2023-11-18T12:56:38;6.80;99.90
7290;DHT22;63176;52.678;13.250;2023-11-18T12:59:05;6.90;99.90
7290;DHT22;63176;52.678;13.250;2023-11-18T13:01:33;6.90;99.90
7290;DHT22;63176;52.678;13.250;2023-11-18T13:04:02;6.90;99.90
7290;DHT22;63176;52.678;13.250;2023-11-18T13:06:28;6.90;99.90
7290;DHT22;63176;52.678;13.250;2023-11-18T13:08:54;6.90;99.90
7290;DHT22;63176;52.678;13.250;2023-11-18T13:11:22;6.90;99.90
7290;DHT22;63176;52.678;13.250;2023-11-18T13:13:52;6.90;99.90
7290;DHT22;63176;52.678;13.250;2023-11-18T13:16:19;6.90;99.90
7290;DHT22;63176;52.678;13.250;2023-11-18T13:18:46;6.90;99.90
7290;DHT22;63176;52.678;13.250;2023-11-18T13:21:19;6.90;99.90
7290;DHT22;63176;52.678;13.250;2023-11-18T13:23:46;6.80;99.90
7290;DHT22;63176;52.678;13.250;2023-11-18T13:26:16;6.90;99.90
7290;DHT22;63176;52.678;13.250;2023-11-18T13:28:42;6.80;99.90
7290;DHT22;63176;52.678;13.250;2023-11-18T13:31:11;6.80;99.90
7290;DHT22;63176;52.678;13.250;2023-11-18T13:33:48;6.80;99.90
7290;DHT22;63176;52.678;13.250;2023-11-18T13:36:16;6.90;99.90
7290;DHT22;63176;52.678;13.250;2023-11-18T13:38:42;6.90;99.90
7290;DHT22;63176;52.678;13.250;2023-11-18T13:41:09;6.90;99.90
7290;DHT22;63176;52.678;13.250;2023-11-18T13:43:45;6.90;99.90
7290;DHT22;63176;52.678;13.250;2023-11-18T13:46:17;7.00;99.90
7290;DHT22;63176;52.678;13.250;2023-11-18T13:48:47;7.00;99.90
7290;DHT22;63176;52.678;13.250;2023-11-18T13:51:15;7.00;99.90
7290;DHT22;63176;52.678;13.250;2023-11-18T13:53:42;7.10;99.90
7290;DHT22;63176;52.678;13.250;2023-11-18T13:56:19;7.00;99.90
7290;DHT22;63176;52.678;13.250;2023-11-18T13:58:45;7.00;99.90
7290;DHT22;63176;52.678;13.250;2023-11-18T14:01:12;7.00;99.90
7290;DHT22;63176;52.678;13.250;2023-11-18T14:03:40;6.90;99.90
7290;DHT22;63176;52.678;13.250;2023-11-18T14:06:09;6.90;99.90
7290;DHT22;63176;52.678;13.250;2023-11-18T14:08:43;6.80;99.90
7290;DHT22;63176;52.678;13.250;2023-11-18T14:11:11;6.70;99.90
7290;DHT22;63176;52.678;13.250;2023-11-18T14:13:37;6.60;99.90
7290;DHT22;63176;52.678;13.250;2023-11-18T14:16:04;6.50;99.90
7290;DHT22;63176;52.678;13.250;2023-11-18T14:18:32;6.40;99.90
7290;DHT22;63176;52.678;13.250;2023-11-18T14:20:58;6.30;99.90
7290;DHT22;63176;52.678;13.250;2023-11-18T14:23:26;6.30;99.90
7290;DHT22;63176;52.678;13.250;2023-11-18T14:25:51;6.30;99.90
7290;DHT22;63176;52.678;13.250;2023-11-18T14:28:17;6.20;99.90
7290;DHT22;63176;52.678;13.250;2023-11-18T14:30:44;6.10;99.90
7290;DHT22;63176;52.678;13.250;2023-11-18T14:33:10;6.10;99.90
7290;DHT22;63176;52.678;13.250;2023-11-18T14:35:35;6.00;99.90
7290;DHT22;63176;52.678;13.250;2023-11-18T14:38:02;5.90;99.90
7290;DHT22;63176;52.678;13.250;2023-11-18T14:40:27;5.70;99.90
7290;DHT22;63176;52.678;13.250;2023-11-18T14:42:54;5.60;99.90
7290;DHT22;63176;52.678;13.250;2023-11-18T14:45:20;5.50;99.90
7290;DHT22;63176;52.678;13.250;2023-11-18T14:47:46;5.50;99.90
7290;DHT22;63176;52.678;13.250;2023-11-18T14:50:13;5.50;99.90
7290;DHT22;63176;52.678;13.250;2023-11-18T14:55:11;5.40;99.90
7290;DHT22;63176;52.678;13.250;2023-11-18T14:57:43;5.20;99.90
7290;DHT22;63176;52.678;13.250;2023-11-18T15:00:10;5.10;99.90
7290;DHT22;63176;52.678;13.250;2023-11-18T15:02:48;5.00;99.90
7290;DHT22;63176;52.678;13.250;2023-11-18T15:05:18;5.10;99.90
7290;DHT22;63176;52.678;13.250;2023-11-18T15:07:48;5.00;99.90
7290;DHT22;63176;52.678;13.250;2023-11-18T15:10:19;5.00;99.90
7290;DHT22;63176;52.678;13.250;2023-11-18T15:12:46;5.10;99.90
7290;DHT22;63176;52.678;13.250;2023-11-18T15:15:12;5.20;99.90
7290;DHT22;63176;52.678;13.250;2023-11-18T15:17:45;5.20;99.90
7290;DHT22;63176;52.678;13.250;2023-11-18T15:20:12;5.30;99.90
7290;DHT22;63176;52.678;13.250;2023-11-18T15:22:38;5.30;99.90
7290;DHT22;63176;52.678;13.250;2023-11-18T15:25:04;5.40;99.90
7290;DHT22;63176;52.678;13.250;2023-11-18T15:27:36;5.40;99.90
7290;DHT22;63176;52.678;13.250;2023-11-18T15:30:01;5.40;99.90
7290;DHT22;63176;52.678;13.250;2023-11-18T15:32:27;5.40;99.90
7290;DHT22;63176;52.678;13.250;2023-11-18T15:34:53;5.50;99.90
7290;DHT22;63176;52.678;13.250;2023-11-18T15:37:19;5.50;99.90
7290;DHT22;63176;52.678;13.250;2023-11-18T15:39:45;5.50;99.90
7290;DHT22;63176;52.678;13.250;2023-11-18T15:42:11;5.50;99.90
7290;DHT22;63176;52.678;13.250;2023-11-18T15:44:39;5.60;99.90
7290;DHT22;63176;52.678;13.250;2023-11-18T15:47:05;5.60;99.90
7290;DHT22;63176;52.678;13.250;2023-11-18T15:49:31;5.70;99.90
7290;DHT22;63176;52.678;13.250;2023-11-18T15:51:56;5.80;99.90
7290;DHT22;63176;52.678;13.250;2023-11-18T15:54:22;5.80;99.90
7290;DHT22;63176;52.678;13.250;2023-11-18T15:56:48;5.80;99.90
7290;DHT22;63176;52.678;13.250;2023-11-18T15:59:13;5.90;99.90
7290;DHT22;63176;52.678;13.250;2023-11-18T16:01:39;5.90;99.90
7290;DHT22;63176;52.678;13.250;2023-11-18T16:04:05;5.90;99.90
7290;DHT22;63176;52.678;13.250;2023-11-18T16:06:31;5.90;99.90
7290;DHT22;63176;52.678;13.250;2023-11-18T16:08:57;5.90;99.90
7290;DHT22;63176;52.678;13.250;2023-11-18T16:11:23;5.90;99.90
7290;DHT22;63176;52.678;13.250;2023-11-18T16:13:48;5.80;99.90
7290;DHT22;63176;52.678;13.250;2023-11-18T16:16:14;5.70;99.90
7290;DHT22;63176;52.678;13.250;2023-11-18T16:18:40;5.60;99.90
7290;DHT22;63176;52.678;13.250;2023-11-18T16:21:05;5.50;99.90
7290;DHT22;63176;52.678;13.250;2023-11-18T16:23:31;5.50;99.90